Time;durP1;ratioP1;P1;durP2;ratioP2;P2;SDS_P1;SDS_P2;PMS_P1;PMS_P2;Temp;Humidity;BMP_temperature;BMP_pressure;BME280_temperature;BME280_humidity;BME280_pressure;Samples;Min_cycle;Max_cycle;Signal;HPM_P1;HPM_P2
2023/06/30 01:34:48;;;;;;;36.45;29.63;;;;;;;29.34;100.00;97542.00;5055296;27;20524;-66
2023/06/30 07:24:00;;;;;;;2.60;2.00;;;;;;;31.09;69.64;97612.16;5060691;27;22481;-66
2023/06/30 07:26:31;;;;;;;3.13;2.20;;;;;;;31.15;71.27;97613.47;5069197;28;20059;-65
2023/06/30 11:22:58;;;;;;;8.23;5.15;;;;;;;30.93;81.02;97259.34;5054943;27;20516;-70
2023/06/30 11:25:30;;;;;;;6.15;5.55;;;;;;;30.96;80.78;97263.28;5055642;28;20133;-69
2023/06/30 11:28:04;;;;;;;6.88;5.47;;;;;;;31.02;80.98;97256.41;5042544;28;20616;-71
2023/06/30 11:30:36;;;;;;;7.03;5.55;;;;;;;31.07;81.49;97256.13;5039420;28;20053;-69
2023/06/30 11:33:07;;;;;;;9.85;5.88;;;;;;;31.12;80.54;97255.81;5030563;28;20057;-70
2023/06/30 11:35:39;;;;;;;7.07;5.90;;;;;;;31.09;80.87;97256.53;5040057;28;20041;-69
2023/06/30 11:38:15;;;;;;;6.28;5.63;;;;;;;31.05;81.34;97252.94;5041800;28;20061;-68
2023/06/30 11:40:52;;;;;;;7.60;5.85;;;;;;;30.96;80.01;97255.09;5055663;28;20107;-69
2023/06/30 11:43:22;;;;;;;6.40;5.20;;;;;;;30.88;81.40;97253.34;5041293;28;20053;-67
2023/06/30 11:46:00;;;;;;;6.13;5.20;;;;;;;30.88;81.87;97253.34;5038893;28;20049;-68
2023/06/30 11:48:38;;;;;;;6.55;5.45;;;;;;;30.82;81.87;97247.38;5040834;28;20049;-67
2023/06/30 11:51:09;;;;;;;6.43;5.70;;;;;;;30.83;81.48;97240.78;5055281;28;20069;-70
2023/06/30 11:53:49;;;;;;;6.30;5.68;;;;;;;30.82;81.73;97228.25;5056568;28;20496;-69
2023/06/30 11:56:20;;;;;;;7.38;5.60;;;;;;;30.82;81.75;97216.50;5041272;28;20049;-70
2023/06/30 11:58:51;;;;;;;7.70;5.53;;;;;;;30.81;81.26;97209.44;5041332;28;20623;-69
2023/06/30 12:01:23;;;;;;;6.43;5.20;;;;;;;30.82;81.42;97216.50;5072057;28;20053;-69
2023/06/30 12:04:14;;;;;;;7.45;5.68;;;;;;;30.80;81.90;97205.94;5058405;28;20048;-69
2023/06/30 12:06:47;;;;;;;6.88;5.53;;;;;;;30.71;81.84;97199.91;5040294;28;20064;-70
2023/06/30 12:09:17;;;;;;;10.73;5.68;;;;;;;30.72;82.94;97202.28;5053357;28;20072;-70
2023/06/30 12:11:49;;;;;;;10.15;6.15;;;;;;;30.68;81.98;97195.16;5034693;28;20068;-69
2023/06/30 12:14:25;;;;;;;7.30;5.63;;;;;;;30.68;82.75;97192.41;5053921;28;20047;-69
2023/06/30 12:16:57;;;;;;;6.18;5.57;;;;;;;30.65;82.52;97179.47;5040316;28;20071;-70
2023/06/30 12:19:27;;;;;;;5.70;5.20;;;;;;;30.60;82.19;97175.09;5039470;28;20132;-68
2023/06/30 12:22:06;;;;;;;7.70;5.95;;;;;;;30.58;82.39;97179.34;5045115;28;20060;-68
2023/06/30 12:24:38;;;;;;;6.85;5.88;;;;;;;30.60;82.79;97166.09;5018912;28;20426;-67
2023/06/30 12:27:09;;;;;;;5.88;5.22;;;;;;;30.59;82.44;97162.56;5028975;28;20128;-68
2023/06/30 12:29:46;;;;;;;6.25;5.45;;;;;;;30.58;81.81;97165.69;5035954;28;20409;-68
2023/06/30 12:32:16;;;;;;;6.57;5.57;;;;;;;30.57;81.58;97172.28;5042138;28;20106;-68
2023/06/30 12:34:46;;;;;;;8.93;6.00;;;;;;;30.59;81.90;97176.22;5014928;28;20072;-68
2023/06/30 12:37:17;;;;;;;6.30;5.70;;;;;;;30.66;81.53;97175.59;5035819;28;20041;-68
2023/06/30 12:39:47;;;;;;;6.38;5.78;;;;;;;30.67;81.21;97172.47;5029157;28;20134;-68
2023/06/30 12:42:18;;;;;;;7.10;6.13;;;;;;;30.71;81.04;97178.03;5017139;28;20630;-68
2023/06/30 12:44:48;;;;;;;5.95;5.35;;;;;;;30.71;81.03;97178.81;5025722;28;20049;-68
2023/06/30 12:47:17;;;;;;;9.68;5.85;;;;;;;30.68;80.48;97185.00;5018294;28;20504;-67
2023/06/30 12:49:47;;;;;;;6.03;5.40;;;;;;;30.64;80.11;97194.28;5020957;28;20103;-68
2023/06/30 12:52:18;;;;;;;6.28;5.65;;;;;;;30.66;80.57;97194.72;5011737;28;20088;-69
2023/06/30 12:54:48;;;;;;;6.20;5.63;;;;;;;30.65;81.56;97190.41;4997432;28;20045;-69
2023/06/30 12:57:18;;;;;;;6.35;5.85;;;;;;;30.63;81.65;97200.91;5029766;28;20099;-70
2023/06/30 12:59:47;;;;;;;6.72;6.05;;;;;;;30.53;81.93;97202.28;5018502;28;20481;-69
2023/06/30 13:02:17;;;;;;;6.07;5.47;;;;;;;30.47;82.48;97197.44;5010521;28;20532;-68
2023/06/30 13:04:46;;;;;;;6.63;6.03;;;;;;;30.42;83.55;97193.03;5032320;28;20041;-68
2023/06/30 13:07:16;;;;;;;7.38;6.68;;;;;;;30.38;83.96;97200.34;5030098;28;20045;-68
2023/06/30 13:09:47;;;;;;;7.70;6.60;;;;;;;30.33;83.80;97198.69;5003480;28;20033;-69
2023/06/30 13:12:25;;;;;;;7.00;6.35;;;;;;;30.34;84.72;97200.28;5018808;28;20065;-69
2023/06/30 13:14:59;;;;;;;6.80;6.05;;;;;;;30.32;85.28;97199.03;5024520;28;20053;-68
2023/06/30 13:17:29;;;;;;;7.65;6.63;;;;;;;30.28;86.04;97204.44;5032768;28;20052;-69
2023/06/30 13:20:00;;;;;;;7.75;6.72;;;;;;;30.22;85.98;97200.41;5033647;28;20091;-69
2023/06/30 13:22:29;;;;;;;7.00;6.32;;;;;;;30.25;85.99;97201.63;5025461;28;20130;-69
2023/06/30 13:24:59;;;;;;;8.00;7.30;;;;;;;30.24;85.19;97203.56;5045343;28;20041;-69
2023/06/30 13:27:28;;;;;;;8.18;7.38;;;;;;;30.22;85.34;97197.69;5044401;28;20391;-69
2023/06/30 13:29:58;;;;;;;7.45;6.82;;;;;;;30.21;85.57;97204.28;5029255;28;20053;-69
2023/06/30 13:32:29;;;;;;;8.68;6.97;;;;;;;30.21;85.47;97209.75;5045831;28;20127;-70
2023/06/30 13:34:58;;;;;;;8.27;6.88;;;;;;;30.26;85.88;97208.69;5045659;28;20395;-68
2023/06/30 13:37:28;;;;;;;13.40;7.10;;;;;;;30.26;85.62;97206.75;5016561;28;20122;-70
2023/06/30 13:39:58;;;;;;;11.68;7.20;;;;;;;30.29;85.62;97214.22;5043375;28;20049;-69
2023/06/30 13:42:28;;;;;;;8.55;7.00;;;;;;;30.30;85.58;97224.00;5024433;28;20054;-69
2023/06/30 13:45:01;;;;;;;;;;;;;;;30.32;84.94;97221.69;5020869;28;20041;-68
2023/06/30 13:47:31;;;;;;;7.45;6.60;;;;;;;30.34;84.74;97235.81;5032162;28;21491;-68
2023/06/30 13:50:01;;;;;;;9.05;6.97;;;;;;;30.37;84.65;97238.97;5028153;28;20060;-68
2023/06/30 13:52:32;;;;;;;8.82;6.97;;;;;;;30.31;84.49;97244.72;5025810;28;20072;-67
2023/06/30 13:55:04;;;;;;;7.50;6.80;;;;;;;30.31;84.49;97249.41;5048794;28;20055;-68
2023/06/30 13:57:35;;;;;;;9.40;7.05;;;;;;;30.29;84.54;97254.41;5020711;28;20138;-68
2023/06/30 14:00:06;;;;;;;10.75;7.28;;;;;;;30.24;84.37;97247.28;5045388;28;20055;-68
2023/06/30 14:02:37;;;;;;;8.38;7.57;;;;;;;30.23;83.93;97250.34;5045529;28;20048;-69
2023/06/30 14:05:07;;;;;;;8.20;7.40;;;;;;;30.22;84.43;97262.44;5044311;28;20056;-70
2023/06/30 14:07:36;;;;;;;7.88;7.07;;;;;;;30.18;84.23;97264.31;5045846;28;20053;-72
2023/06/30 14:10:06;;;;;;;7.60;6.90;;;;;;;30.19;84.56;97268.59;5056067;28;20049;-68
2023/06/30 14:12:36;;;;;;;11.65;7.45;;;;;;;30.18;84.23;97262.34;5053476;28;20144;-69
2023/06/30 14:15:07;;;;;;;8.35;7.55;;;;;;;30.18;83.92;97258.84;5061409;28;20491;-69
2023/06/30 14:17:37;;;;;;;8.65;7.75;;;;;;;30.16;84.25;97261.13;5027392;28;20507;-69
2023/06/30 14:20:10;;;;;;;9.93;7.53;;;;;;;30.11;84.58;97256.72;5043465;28;20152;-70
2023/06/30 14:22:40;;;;;;;11.80;7.45;;;;;;;30.05;85.59;97266.34;5031273;28;20130;-68
2023/06/30 14:25:22;;;;;;;9.85;7.25;;;;;;;30.12;85.73;97273.91;5019264;28;20093;-66
2023/06/30 14:27:52;;;;;;;8.40;7.55;;;;;;;30.15;85.87;97282.19;5022171;28;20049;-65
2023/06/30 14:30:28;;;;;;;8.40;7.35;;;;;;;30.20;85.15;97281.91;5031331;28;21183;-69
2023/06/30 14:33:01;;;;;;;8.93;8.02;;;;;;;30.19;85.69;97293.19;5020367;28;20053;-68
2023/06/30 14:35:32;;;;;;;9.50;8.57;;;;;;;30.19;85.19;97288.53;5042306;28;20048;-70
2023/06/30 14:38:02;;;;;;;9.60;7.93;;;;;;;30.19;86.33;97299.44;5027076;28;20068;-68
2023/06/30 14:40:32;;;;;;;11.85;8.68;;;;;;;30.18;86.10;97297.84;5031401;28;20044;-69
2023/06/30 14:43:02;;;;;;;9.90;8.90;;;;;;;30.16;86.02;97296.63;5033524;28;20048;-69
2023/06/30 14:45:31;;;;;;;9.18;8.35;;;;;;;30.17;85.49;97303.69;5039998;28;20037;-69
2023/06/30 14:48:01;;;;;;;8.95;8.10;;;;;;;30.15;86.28;97300.50;5004758;28;20174;-68
2023/06/30 14:50:31;;;;;;;9.50;8.20;;;;;;;30.09;86.67;97307.41;5038797;28;20132;-71
2023/06/30 14:53:00;;;;;;;10.48;7.70;;;;;;;30.09;86.69;97302.75;5041678;28;20050;-69
2023/06/30 14:55:30;;;;;;;8.93;8.07;;;;;;;30.10;87.48;97309.75;5036999;28;20049;-67
2023/06/30 14:58:00;;;;;;;8.90;7.97;;;;;;;30.09;88.05;97316.41;5009661;28;20045;-66
2023/06/30 15:00:30;;;;;;;8.98;8.05;;;;;;;30.09;87.64;97312.88;5032620;28;20061;-67
2023/06/30 15:03:04;;;;;;;10.30;8.32;;;;;;;30.08;87.66;97322.19;5036389;28;20045;-64
2023/06/30 15:05:34;;;;;;;13.48;8.90;;;;;;;30.07;87.72;97321.41;5034027;28;20057;-65
2023/06/30 15:08:05;;;;;;;10.20;9.02;;;;;;;30.08;88.09;97327.66;5037602;28;20076;-67
2023/06/30 15:10:48;;;;;;;9.82;8.25;;;;;;;30.05;87.86;97331.09;5033805;28;20049;-68
2023/06/30 15:13:18;;;;;;;9.45;8.55;;;;;;;30.05;88.21;97331.09;5027811;28;20044;-67
2023/06/30 15:15:47;;;;;;;10.07;9.07;;;;;;;30.05;88.69;97325.66;5008618;28;20053;-69
2023/06/30 15:18:17;;;;;;;10.70;9.60;;;;;;;30.05;88.93;97328.38;5004280;28;20046;-69
2023/06/30 15:20:48;;;;;;;10.68;8.88;;;;;;;30.04;89.21;97330.31;4999714;28;20193;-69
2023/06/30 15:23:18;;;;;;;9.88;8.88;;;;;;;30.04;88.93;97341.22;5026967;28;20790;-69
2023/06/30 15:25:48;;;;;;;11.30;9.02;;;;;;;30.02;89.44;97335.31;5043231;28;20041;-68
2023/06/30 15:28:18;;;;;;;9.45;8.55;;;;;;;30.03;89.76;97336.91;5012451;28;20048;-70
2023/06/30 15:30:47;;;;;;;11.65;10.02;;;;;;;30.03;89.42;97339.63;5042061;28;20535;-68
2023/06/30 15:33:17;;;;;;;13.60;9.02;;;;;;;30.02;89.47;97353.63;5058610;28;20044;-68
2023/06/30 15:35:48;;;;;;;10.60;9.60;;;;;;;30.03;89.66;97363.41;5026047;28;20045;-68
2023/06/30 15:38:18;;;;;;;11.27;9.60;;;;;;;30.03;89.83;97360.69;5051120;28;20055;-68
2023/06/30 15:40:48;;;;;;;10.85;9.75;;;;;;;30.00;89.80;97362.19;5051369;28;20045;-68
2023/06/30 15:43:27;;;;;;;12.93;9.55;;;;;;;30.00;90.35;97364.94;5035710;28;20049;-68
2023/06/30 15:45:56;;;;;;;11.43;9.38;;;;;;;29.99;90.63;97366.06;5019624;28;20103;-67
2023/06/30 15:48:26;;;;;;;12.15;10.27;;;;;;;30.00;90.07;97377.78;5031126;28;20503;-67
2023/06/30 15:50:55;;;;;;;11.90;9.68;;;;;;;29.99;90.52;97374.25;5033178;28;20431;-68
2023/06/30 15:53:25;;;;;;;11.95;9.65;;;;;;;29.98;90.58;97378.13;5042874;28;20045;-67
2023/06/30 15:55:54;;;;;;;13.30;10.65;;;;;;;29.96;90.68;97379.63;5033092;28;20059;-68
2023/06/30 15:58:24;;;;;;;11.32;9.40;;;;;;;29.94;90.42;97387.38;5047144;28;20052;-68
2023/06/30 16:00:54;;;;;;;11.93;9.20;;;;;;;29.95;91.12;97392.50;5018819;28;20048;-65
2023/06/30 16:03:23;;;;;;;11.88;10.02;;;;;;;29.97;90.80;97389.41;5031558;28;20094;-70
2023/06/30 16:05:53;;;;;;;13.23;10.32;;;;;;;29.96;91.45;97399.53;5044419;28;20048;-64
2023/06/30 16:08:24;;;;;;;10.40;9.40;;;;;;;29.97;91.63;97411.22;5056919;28;20044;-65
2023/06/30 16:10:53;;;;;;;10.82;9.73;;;;;;;29.96;91.88;97412.41;5032479;28;20037;-65
2023/06/30 16:13:23;;;;;;;10.95;9.88;;;;;;;29.95;91.17;97414.34;5021888;28;20460;-64
2023/06/30 16:15:53;;;;;;;12.15;10.57;;;;;;;29.96;91.64;97410.47;5039936;28;20590;-65
2023/06/30 16:18:23;;;;;;;11.48;10.15;;;;;;;29.98;91.28;97419.09;5008594;28;20150;-66
2023/06/30 16:20:53;;;;;;;12.02;10.48;;;;;;;30.00;91.94;97424.22;5058178;28;20766;-66
2023/06/30 16:23:24;;;;;;;14.32;10.02;;;;;;;29.99;91.78;97414.44;5047293;28;20116;-67
2023/06/30 16:25:53;;;;;;;12.63;11.05;;;;;;;29.97;92.03;97420.22;5046184;28;20067;-67
2023/06/30 16:28:22;;;;;;;12.52;10.93;;;;;;;29.97;92.07;97420.22;5045626;28;20048;-65
2023/06/30 16:30:54;;;;;;;14.05;10.75;;;;;;;29.96;92.49;97421.38;5048032;28;20056;-66
2023/06/30 16:33:25;;;;;;;12.25;10.70;;;;;;;29.97;92.22;97428.41;5025952;28;20149;-64
2023/06/30 16:35:55;;;;;;;12.95;11.63;;;;;;;29.99;92.53;97428.06;5026048;28;20049;-65
2023/06/30 16:38:25;;;;;;;14.63;12.10;;;;;;;29.97;92.67;97417.50;5028553;28;20037;-65
2023/06/30 16:40:55;;;;;;;13.35;12.10;;;;;;;30.00;92.08;97429.66;5047584;28;20087;-68
2023/06/30 16:43:25;;;;;;;15.68;11.73;;;;;;;29.98;92.36;97429.22;5032777;28;20049;-69
2023/06/30 16:45:55;;;;;;;15.35;12.93;;;;;;;29.97;92.80;97428.41;5048204;28;20075;-67
2023/06/30 16:48:24;;;;;;;13.73;11.50;;;;;;;29.97;92.75;97438.53;5028980;28;20105;-70
2023/06/30 16:50:54;;;;;;;17.83;12.07;;;;;;;29.97;93.01;97433.06;5044629;28;20107;-66
2023/06/30 16:53:26;;;;;;;14.25;12.07;;;;;;;29.95;92.73;97435.38;5036341;28;20053;-68
2023/06/30 16:56:00;;;;;;;14.57;12.00;;;;;;;29.95;92.62;97441.66;5045504;28;20063;-69
2023/06/30 16:58:30;;;;;;;13.95;11.63;;;;;;;29.96;92.35;97442.44;5037201;28;20040;-69
2023/06/30 17:00:59;;;;;;;17.23;12.48;;;;;;;29.95;92.17;97441.66;5029115;28;20140;-69
2023/06/30 17:03:29;;;;;;;14.75;12.65;;;;;;;29.93;92.87;97446.66;5041916;28;20126;-68
2023/06/30 17:05:58;;;;;;;14.48;12.75;;;;;;;29.92;92.61;97447.78;5033102;28;20067;-69
2023/06/30 17:08:29;;;;;;;18.20;14.00;;;;;;;29.93;92.82;97448.56;5048539;28;20079;-69
2023/06/30 17:10:58;;;;;;;16.40;14.70;;;;;;;29.91;92.82;97451.69;5044227;28;20092;-68
2023/06/30 17:13:29;;;;;;;21.40;16.77;;;;;;;29.91;92.98;97451.69;5044449;28;20049;-69
2023/06/30 17:15:59;;;;;;;20.58;16.08;;;;;;;29.87;92.28;97451.56;5048563;28;20524;-70
2023/06/30 17:18:29;;;;;;;21.08;17.67;;;;;;;29.86;92.93;97460.09;5045881;28;20045;-71
2023/06/30 17:20:58;;;;;;;24.17;18.77;;;;;;;29.83;92.31;97471.69;5032825;28;20391;-70
2023/06/30 17:23:28;;;;;;;21.23;18.77;;;;;;;29.82;92.56;97470.91;5027428;28;20713;-69
2023/06/30 17:25:57;;;;;;;33.38;23.25;;;;;;;29.82;92.48;97470.13;5025942;28;20045;-67
2023/06/30 17:28:27;;;;;;;29.55;21.75;;;;;;;29.80;92.37;97481.38;5044071;28;20136;-69
2023/06/30 17:30:56;;;;;;;32.60;23.90;;;;;;;29.81;92.16;97480.25;5027019;28;20131;-69
2023/06/30 17:33:26;;;;;;;29.13;22.48;;;;;;;29.82;92.03;97475.56;5055474;28;20129;-68
2023/06/30 17:35:56;;;;;;;32.33;24.73;;;;;;;29.81;91.86;97480.25;5024748;28;20131;-68
2023/06/30 17:38:25;;;;;;;31.83;24.23;;;;;;;29.80;91.67;97483.31;5044506;28;20055;-73
2023/06/30 17:40:55;;;;;;;34.40;24.13;;;;;;;29.80;92.04;97494.22;5061042;28;20055;-70
2023/06/30 17:43:25;;;;;;;30.73;24.45;;;;;;;29.80;91.83;97496.94;5045872;28;20147;-67
2023/06/30 17:45:54;;;;;;;28.48;22.13;;;;;;;29.80;91.78;97503.22;5045731;28;20485;-69
2023/06/30 17:48:29;;;;;;;26.70;21.08;;;;;;;29.80;92.07;97494.22;5046522;28;20080;-71
2023/06/30 17:50:59;;;;;;;25.40;18.95;;;;;;;29.75;90.40;97499.94;5047340;28;20132;-67
2023/06/30 17:53:29;;;;;;;25.13;17.33;;;;;;;29.71;89.03;97501.75;5048141;28;20485;-71
2023/06/30 17:55:58;;;;;;;20.25;15.25;;;;;;;29.66;88.04;97500.06;5052752;28;20063;-72
2023/06/30 17:58:28;;;;;;;24.33;15.75;;;;;;;29.66;86.50;97491.09;5048647;28;20895;-71
2023/06/30 18:00:58;;;;;;;16.23;14.02;;;;;;;29.63;84.90;97494.50;5046185;28;20486;-69
2023/06/30 18:03:28;;;;;;;17.00;13.73;;;;;;;29.62;82.98;97498.38;4701377;28;10000257;-69
2023/06/30 18:06:00;;;;;;;16.33;13.27;;;;;;;29.61;82.59;97507.72;4667573;28;10000367;-74
2023/06/30 18:08:31;;;;;;;14.40;12.18;;;;;;;29.57;80.92;97501.34;5057854;28;20052;-71
2023/06/30 18:11:00;;;;;;;15.48;12.93;;;;;;;29.56;81.01;97505.22;5041907;28;20041;-70
2023/06/30 18:13:38;;;;;;;15.75;11.90;;;;;;;29.50;78.09;97501.16;5040790;28;20055;-70
2023/06/30 18:16:08;;;;;;;13.23;11.38;;;;;;;29.50;78.34;97504.66;5041425;28;20099;-71
2023/06/30 18:18:37;;;;;;;12.10;10.57;;;;;;;29.48;77.33;97503.41;5041515;28;20065;-71
2023/06/30 18:21:07;;;;;;;15.88;12.13;;;;;;;29.44;76.85;97506.03;5025931;28;20571;-68
2023/06/30 18:23:38;;;;;;;14.10;12.00;;;;;;;29.43;75.94;97507.97;5039532;28;20065;-70
2023/06/30 18:26:07;;;;;;;11.90;10.65;;;;;;;29.42;77.13;97513.78;5039549;28;20135;-68
2023/06/30 18:28:37;;;;;;;23.30;14.70;;;;;;;29.56;82.02;97505.22;5039705;28;20061;-69
2023/06/30 18:31:06;;;;;;;18.45;16.48;;;;;;;29.66;87.62;97505.53;5036104;28;20132;-68
2023/06/30 18:33:36;;;;;;;19.38;17.27;;;;;;;29.65;89.47;97497.69;5037820;28;20722;-71
2023/06/30 18:36:06;;;;;;;23.00;19.52;;;;;;;29.63;90.42;97500.78;5031040;28;20045;-70
2023/06/30 18:38:35;;;;;;;26.80;20.95;;;;;;;29.59;91.44;97512.72;5023971;28;20080;-70
2023/06/30 18:41:05;;;;;;;24.55;20.08;;;;;;;29.58;91.79;97508.41;5045886;28;20044;-67
2023/06/30 18:43:35;;;;;;;27.42;22.00;;;;;;;29.56;92.40;97508.75;5040799;28;20079;-69
2023/06/30 18:46:05;;;;;;;29.98;21.55;;;;;;;29.54;92.90;97512.94;5029334;28;20037;-67
2023/06/30 18:48:35;;;;;;;28.58;22.98;;;;;;;29.53;93.17;97509.44;5026693;28;20053;-69
2023/06/30 18:51:06;;;;;;;24.80;21.60;;;;;;;29.51;93.54;97511.72;5044958;28;20099;-68
2023/06/30 18:53:36;;;;;;;24.90;21.20;;;;;;;29.51;93.88;97513.66;5024944;28;20048;-69
2023/06/30 18:56:06;;;;;;;25.35;21.75;;;;;;;29.45;94.05;97511.16;5025705;28;20427;-69
2023/06/30 18:58:37;;;;;;;24.98;22.05;;;;;;;29.42;94.03;97505.59;5027127;28;20834;-69
2023/06/30 19:01:10;;;;;;;26.88;21.80;;;;;;;29.40;94.11;97508.66;5045190;28;20060;-70
2023/06/30 19:03:42;;;;;;;;;;;;;;;29.39;94.76;97517.19;5044263;28;20045;-68
2023/06/30 19:06:14;;;;;;;25.13;21.45;;;;;;;29.35;95.02;97522.53;5044215;28;19920;-68
2023/06/30 19:08:44;;;;;;;29.85;22.90;;;;;;;29.35;94.98;97519.81;5047304;28;20135;-69
2023/06/30 19:11:15;;;;;;;30.40;22.65;;;;;;;29.34;95.33;97531.09;5040965;28;20040;-68
2023/06/30 19:13:45;;;;;;;26.25;22.55;;;;;;;29.26;95.70;97529.22;5045627;28;20061;-67
2023/06/30 19:16:16;;;;;;;27.60;22.92;;;;;;;29.23;96.66;97519.00;5048772;28;20085;-67
2023/06/30 19:18:46;;;;;;;26.48;23.63;;;;;;;29.19;96.30;97523.56;5043059;28;20060;-67
2023/06/30 19:21:18;;;;;;;25.75;22.92;;;;;;;29.14;96.90;97527.31;5046672;28;20072;-68
2023/06/30 19:23:47;;;;;;;28.67;24.05;;;;;;;29.11;96.96;97522.53;5059838;28;20052;-67
2023/06/30 19:26:17;;;;;;;28.98;23.20;;;;;;;29.09;97.26;97515.81;5028138;28;20083;-66
2023/06/30 19:28:46;;;;;;;26.75;22.75;;;;;;;29.07;97.09;97518.91;5045169;28;20150;-68
2023/06/30 19:31:16;;;;;;;26.58;22.73;;;;;;;29.08;96.73;97517.75;5027477;28;20102;-69
2023/06/30 19:33:46;;;;;;;24.75;21.92;;;;;;;29.06;96.75;97511.88;5029422;28;20075;-68
2023/06/30 19:36:15;;;;;;;25.52;22.23;;;;;;;29.05;96.53;97507.53;5045293;28;20103;-67
2023/06/30 19:38:45;;;;;;;24.25;21.40;;;;;;;29.04;97.14;97516.84;5013326;28;20444;-68
2023/06/30 19:41:16;;;;;;;27.40;20.75;;;;;;;29.01;96.84;97512.09;5027580;28;20063;-70
2023/06/30 19:43:46;;;;;;;26.02;21.35;;;;;;;29.01;96.88;97512.09;5015855;28;20052;-69
2023/06/30 19:46:15;;;;;;;22.33;19.92;;;;;;;29.02;97.47;97508.22;5045870;28;20107;-69
2023/06/30 19:48:46;;;;;;;23.25;20.35;;;;;;;28.99;97.58;97508.91;5063561;28;20055;-69
2023/06/30 19:51:16;;;;;;;25.35;21.10;;;;;;;28.99;97.29;97512.41;5031387;28;20052;-69
2023/06/30 19:53:45;;;;;;;25.30;21.67;;;;;;;29.00;97.38;97515.94;5032096;28;20049;-68
2023/06/30 19:56:15;;;;;;;25.58;21.98;;;;;;;29.00;97.64;97524.13;5048385;28;20045;-68
2023/06/30 19:58:44;;;;;;;26.17;21.40;;;;;;;28.99;98.17;97523.31;5032414;28;20045;-68
2023/06/30 20:01:16;;;;;;;25.10;21.92;;;;;;;28.95;98.33;97529.78;5047790;28;20045;-67
2023/06/30 20:03:46;;;;;;;28.03;22.20;;;;;;;28.95;98.36;97535.25;5030074;28;20072;-70
2023/06/30 20:06:16;;;;;;;28.33;22.95;;;;;;;28.93;98.35;97530.16;5035933;28;20045;-68
2023/06/30 20:08:47;;;;;;;26.48;22.20;;;;;;;28.93;98.24;97523.91;5042931;28;20048;-68
2023/06/30 20:11:16;;;;;;;29.45;22.13;;;;;;;28.92;98.54;97525.03;5028920;28;20084;-70
2023/06/30 20:13:47;;;;;;;26.75;22.33;;;;;;;28.92;98.70;97535.94;5017092;28;20045;-69
2023/06/30 20:16:18;;;;;;;28.17;21.77;;;;;;;28.91;98.65;97528.88;5029014;28;20124;-69
2023/06/30 20:18:48;;;;;;;25.17;21.67;;;;;;;28.90;98.91;97535.50;5048779;28;20048;-68
2023/06/30 20:21:17;;;;;;;25.00;22.17;;;;;;;28.88;98.93;97535.03;5026965;28;20108;-69
2023/06/30 20:23:47;;;;;;;25.67;22.50;;;;;;;28.88;99.34;97535.84;4997252;28;20053;-69
2023/06/30 20:26:16;;;;;;;26.50;21.80;;;;;;;28.88;99.34;97535.03;5019731;28;20494;-69
2023/06/30 20:28:51;;;;;;;28.27;23.17;;;;;;;28.86;99.37;97535.38;5007817;28;20056;-70
2023/06/30 20:31:22;;;;;;;26.60;22.15;;;;;;;28.88;99.25;97538.56;5011247;28;20554;-68
2023/06/30 20:33:52;;;;;;;28.00;22.70;;;;;;;28.87;99.31;97531.50;5028446;28;20050;-68
2023/06/30 20:36:21;;;;;;;26.90;21.38;;;;;;;28.88;99.09;97535.84;4999479;28;20050;-68
2023/06/30 20:38:51;;;;;;;34.75;23.50;;;;;;;28.87;99.39;97534.22;5012530;28;20068;-68
2023/06/30 20:41:21;;;;;;;26.35;23.35;;;;;;;28.87;99.08;97544.34;5008817;28;20077;-67
2023/06/30 20:43:51;;;;;;;28.58;24.20;;;;;;;28.87;99.13;97533.44;5011035;28;20050;-69
2023/06/30 20:46:22;;;;;;;33.17;23.63;;;;;;;28.87;99.09;97536.16;5004245;28;20046;-68
2023/06/30 20:48:51;;;;;;;32.83;24.80;;;;;;;28.87;99.08;97541.63;5029254;28;20548;-68
2023/06/30 20:51:20;;;;;;;34.35;26.42;;;;;;;28.86;98.79;97532.63;5033276;28;20059;-69
2023/06/30 20:53:50;;;;;;;31.15;24.90;;;;;;;28.86;99.52;97540.00;5024725;28;20052;-68
2023/06/30 20:56:19;;;;;;;32.63;25.15;;;;;;;28.85;99.79;97538.44;5027442;28;20073;-67
2023/06/30 20:58:48;;;;;;;29.75;25.20;;;;;;;28.86;98.82;97542.75;5009464;28;20049;-68
2023/06/30 21:01:21;;;;;;;36.20;28.27;;;;;;;28.85;98.79;97539.25;4993500;28;20145;-67
2023/06/30 21:03:51;;;;;;;33.65;25.58;;;;;;;28.83;99.52;97532.53;5024424;28;20059;-68
2023/06/30 21:06:22;;;;;;;33.45;25.52;;;;;;;28.81;100.00;97530.13;5026741;28;20436;-68
2023/06/30 21:08:51;;;;;;;29.60;25.40;;;;;;;28.81;100.00;97534.81;5002132;28;20049;-68
2023/06/30 21:11:20;;;;;;;31.92;26.80;;;;;;;28.79;100.00;97534.34;5007424;28;20049;-68
2023/06/30 21:13:50;;;;;;;30.13;26.77;;;;;;;28.76;99.93;97538.56;4995501;28;20108;-68
2023/06/30 21:16:19;;;;;;;32.30;26.63;;;;;;;28.76;100.00;97535.81;5017921;28;20055;-67
2023/06/30 21:18:49;;;;;;;35.40;26.45;;;;;;;28.77;99.90;97539.31;5012466;28;20055;-68
2023/06/30 21:21:19;;;;;;;28.83;25.38;;;;;;;28.77;100.00;97531.94;5024335;28;20118;-67
2023/06/30 21:23:49;;;;;;;29.55;24.52;;;;;;;28.77;100.00;97522.97;5057400;28;20528;-68
2023/06/30 21:26:19;;;;;;;28.75;24.95;;;;;;;28.74;100.00;97520.94;5033802;28;20393;-68
2023/06/30 21:28:49;;;;;;;34.08;24.98;;;;;;;28.74;100.00;97519.00;5049888;28;20056;-68
2023/06/30 21:31:20;;;;;;;29.73;26.27;;;;;;;28.74;100.00;97520.94;5067140;28;20056;-68
2023/06/30 21:33:50;;;;;;;33.53;25.33;;;;;;;28.74;100.00;97512.75;5034086;28;20037;-68
2023/06/30 21:36:20;;;;;;;31.65;25.38;;;;;;;28.74;100.00;97518.22;5064269;28;20082;-68
2023/06/30 21:38:49;;;;;;;31.35;25.50;;;;;;;28.72;100.00;97515.03;5049377;28;20472;-68
2023/06/30 21:41:19;;;;;;;31.17;25.70;;;;;;;28.73;100.00;97522.06;5048772;28;20048;-68
2023/06/30 21:43:48;;;;;;;30.00;25.13;;;;;;;28.72;100.00;97520.50;5049468;28;20070;-69
2023/06/30 21:46:18;;;;;;;30.42;25.25;;;;;;;28.70;100.00;97511.81;5049365;28;20475;-68
2023/06/30 21:48:48;;;;;;;29.10;25.98;;;;;;;28.67;100.00;97512.50;5062995;28;20067;-67
2023/06/30 21:51:18;;;;;;;31.65;26.70;;;;;;;28.69;100.00;97518.41;5049102;28;20381;-67
2023/06/30 21:53:50;;;;;;;31.40;25.58;;;;;;;28.67;100.00;97517.94;5066922;28;20471;-67
2023/06/30 21:59:22;;;;;;;29.50;25.85;;;;;;;28.66;100.00;97524.53;5045950;28;20061;-67
2023/06/30 22:01:51;;;;;;;30.05;24.92;;;;;;;28.63;100.00;97515.13;5064370;28;20750;-66
2023/06/30 22:04:21;;;;;;;31.45;25.58;;;;;;;28.63;100.00;97519.78;5048801;28;20783;-68
2023/06/30 22:06:50;;;;;;;30.52;25.00;;;;;;;28.62;100.00;97523.63;5049023;28;20078;-68
2023/06/30 22:09:19;;;;;;;31.05;25.85;;;;;;;28.59;100.00;97512.25;5066386;28;20060;-68
2023/06/30 22:11:49;;;;;;;29.95;25.95;;;;;;;28.61;100.00;97517.38;5066541;28;20160;-68
2023/06/30 22:14:18;;;;;;;32.25;26.35;;;;;;;28.58;100.00;97520.78;5066615;28;20051;-68
2023/06/30 22:16:48;;;;;;;31.90;26.75;;;;;;;28.59;100.00;97514.97;5048940;28;20064;-68
2023/06/30 22:19:17;;;;;;;31.67;26.20;;;;;;;28.56;100.00;97512.94;5048554;28;20058;-68
2023/06/30 22:21:47;;;;;;;32.58;26.40;;;;;;;28.58;100.00;97516.13;5055154;28;20546;-68
2023/06/30 22:24:17;;;;;;;35.75;25.50;;;;;;;28.57;100.00;97513.75;5065811;28;20460;-68
2023/06/30 22:26:46;;;;;;;34.25;26.98;;;;;;;28.57;100.00;97511.00;5066280;28;20048;-68
2023/06/30 22:29:15;;;;;;;35.50;27.13;;;;;;;28.57;100.00;97516.47;5064199;28;20477;-67
2023/06/30 22:31:45;;;;;;;34.13;27.45;;;;;;;28.57;100.00;97522.72;5048890;28;20379;-68
2023/06/30 22:34:15;;;;;;;33.30;27.73;;;;;;;28.57;100.00;97519.19;5049031;28;20597;-68
2023/06/30 22:36:44;;;;;;;33.22;26.42;;;;;;;28.56;100.00;97521.09;5049218;28;20056;-68
2023/06/30 22:39:14;;;;;;;34.33;27.15;;;;;;;28.56;100.00;97520.31;5047801;28;20044;-68
2023/06/30 22:41:43;;;;;;;33.22;26.63;;;;;;;28.56;100.00;97520.31;5066342;28;20565;-68
2023/06/30 22:44:13;;;;;;;33.58;27.33;;;;;;;28.53;100.00;97518.28;5045074;28;20040;-67
2023/06/30 22:46:43;;;;;;;33.65;27.25;;;;;;;28.51;100.00;97515.88;5069480;28;20516;-69
2023/06/30 22:49:13;;;;;;;36.65;28.23;;;;;;;28.53;100.00;97524.53;5064611;28;20044;-67
2023/06/30 22:51:42;;;;;;;37.03;28.98;;;;;;;28.50;100.00;97527.91;5048950;28;20553;-67
2023/06/30 22:54:12;;;;;;;35.45;27.90;;;;;;;28.51;100.00;97528.69;5047316;28;20439;-68